Pagrindinis puslapis
METAR-TAF:

METAR-TAF

Oro uostai :

Lampangas, Tailandas

platuma: 18-17N, ilguma: 099-31E, Aukštis: 241 m

Dabartinis oras

Ataskaita buvo paskelbta 45 minutes, ne 04:00 UTC
Vėjas 3 kt nuo kintamojo kryptimis
Temperatūra 32°C
Drėgmė 46%
Slėgis 1013 hPa
Matomumas: 7000 m

METAR: VTCL 290400Z VRB03KT 7000 NSC 32/19 Q1013 NOSIG

Laikas: 11:45 (04:45 UTC)

Prognozė

Ataskaita buvo paskelbta 5 valandos ir 45 minutes, ne 23:00 UTC
Prognozė galioja nuo 29 metu 00 UTC su 29 metu 24 UTC
Vėjas 4 kt iš Pietvakarių
Matomumas: 7000 m
Mažai debesys ne aukštis 2500 ft

TAF: VTCL 282300Z 2900/2924 22004KT 7000 FEW025

Orai ataskaitas ir orų prognozės (METAR, TAF).

turimą stotys yra geltonos ir raudonos taškus žemėlapyje.

Perkelti pele per norėdami pamatyti stoties vardą.

Tada spustelėkite, norėdami matyti oro stebėjimo ir prognozės.

Norėdami pakeisti žemėlapį: spustelėkite ant žalios mygtukų su juodo kryžiaus žemyn,; žalią mygtuką su brūkšneliu, jei norite nutolinti; arba žalių rodyklių gretimoms žemėlapius.


METAR-TAF: